createdAt,value
2023-02-15T00:04:47.199Z,35.10
2023-02-15T00:09:49.344Z,35.40
2023-02-15T00:14:48.220Z,21.10
2023-02-15T00:19:47.551Z,34.90
2023-02-15T00:24:46.690Z,36.40
2023-02-15T00:29:46.308Z,35.70
2023-02-15T00:34:46.065Z,31.00
2023-02-15T00:39:45.079Z,27.00
2023-02-15T00:44:44.645Z,21.50
2023-02-15T00:49:44.585Z,28.50
2023-02-15T00:54:44.521Z,30.00
2023-02-15T00:59:44.193Z,23.50
2023-02-15T01:04:43.685Z,23.70
2023-02-15T01:09:42.865Z,30.50
2023-02-15T01:14:43.315Z,26.60
2023-02-15T01:19:43.599Z,31.30
2023-02-15T01:24:47.209Z,16.80
2023-02-15T01:29:48.469Z,28.10
2023-02-15T01:34:48.502Z,22.60
2023-02-15T01:39:47.443Z,25.60
2023-02-15T01:45:01.345Z,34.50
2023-02-15T01:50:11.305Z,39.20
2023-02-15T01:55:13.774Z,20.30
2023-02-15T02:00:18.452Z,24.80
2023-02-15T02:05:20.583Z,30.10
2023-02-15T02:10:25.020Z,25.10
2023-02-15T02:15:30.001Z,30.20
2023-02-15T02:21:01.566Z,23.00
2023-02-15T02:26:37.491Z,30.40
2023-02-15T02:32:14.807Z,22.50
2023-02-15T02:37:27.363Z,25.00
2023-02-15T02:42:38.279Z,30.20
2023-02-15T02:47:44.405Z,27.60
2023-02-15T02:52:47.961Z,29.60
2023-02-15T02:57:54.834Z,27.30
2023-02-15T03:03:06.229Z,31.30
2023-02-15T03:08:11.098Z,27.10
2023-02-15T03:13:12.174Z,25.30
2023-02-15T03:18:11.076Z,24.40
2023-02-15T03:23:16.259Z,22.90
2023-02-15T03:28:21.654Z,23.00
2023-02-15T03:33:22.267Z,33.90
2023-02-15T03:38:30.938Z,34.40
2023-02-15T03:43:42.515Z,28.40
2023-02-15T03:48:48.221Z,25.70
2023-02-15T03:53:51.035Z,29.90
2023-02-15T03:59:08.189Z,30.30
2023-02-15T04:04:20.801Z,34.70
2023-02-15T04:09:38.071Z,29.20
2023-02-15T04:14:56.313Z,32.10
2023-02-15T04:20:12.959Z,11.40
2023-02-15T04:25:13.393Z,33.70
2023-02-15T04:30:17.671Z,29.20
2023-02-15T04:35:17.382Z,34.20
2023-02-15T04:40:19.877Z,33.10
2023-02-15T04:45:19.780Z,23.50
2023-02-15T04:50:19.037Z,32.90
2023-02-15T04:55:18.403Z,28.60
2023-02-15T05:00:19.494Z,23.00
2023-02-15T05:05:19.525Z,30.80
2023-02-15T05:10:19.627Z,29.90
2023-02-15T05:15:20.982Z,19.60
2023-02-15T05:20:20.866Z,23.80
2023-02-15T05:25:37.716Z,16.60
2023-02-15T05:30:37.285Z,23.60
2023-02-15T05:35:37.494Z,25.40
2023-02-15T05:40:37.516Z,27.10
2023-02-15T05:45:37.272Z,23.30
2023-02-15T05:50:37.251Z,23.00
2023-02-15T05:55:36.126Z,11.70
2023-02-15T06:00:37.820Z,19.60
2023-02-15T06:05:37.554Z,33.40
2023-02-15T06:10:38.391Z,18.30
2023-02-15T06:15:38.363Z,23.00
2023-02-15T06:20:37.367Z,28.30
2023-02-15T06:25:37.590Z,33.00
2023-02-15T06:30:38.454Z,17.10
2023-02-15T06:35:37.291Z,28.30
2023-02-15T06:40:37.162Z,29.60
2023-02-15T06:45:36.917Z,34.00
2023-02-15T06:50:36.945Z,40.10
2023-02-15T06:55:36.089Z,32.00
2023-02-15T07:00:35.146Z,35.30
2023-02-15T07:05:36.980Z,30.00
2023-02-15T07:10:35.967Z,30.90
2023-02-15T07:15:35.032Z,33.60
2023-02-15T07:20:37.551Z,19.90
2023-02-15T07:25:39.797Z,25.50
2023-02-15T07:30:39.556Z,30.00
2023-02-15T07:35:39.360Z,32.50
2023-02-15T07:40:38.474Z,35.80
2023-02-15T07:45:37.633Z,32.00
2023-02-15T07:50:37.602Z,37.10
2023-02-15T07:55:40.145Z,21.50
2023-02-15T08:00:53.295Z,32.30
2023-02-15T08:05:52.360Z,29.30
2023-02-15T08:11:08.970Z,30.70
2023-02-15T08:16:08.551Z,29.60
2023-02-15T08:21:08.068Z,25.60
2023-02-15T08:26:09.253Z,29.60
2023-02-15T08:31:14.537Z,35.80
2023-02-15T08:36:18.565Z,31.90
2023-02-15T08:41:23.432Z,23.30
2023-02-15T08:46:24.062Z,26.50
2023-02-15T08:51:26.475Z,28.60
2023-02-15T08:56:28.052Z,24.90
2023-02-15T09:01:29.822Z,29.30
2023-02-15T09:06:30.901Z,34.00
2023-02-15T09:11:36.285Z,29.40
2023-02-15T09:16:37.942Z,24.10
2023-02-15T09:21:40.455Z,33.00
2023-02-15T09:26:43.474Z,30.00
2023-02-15T09:31:48.191Z,26.20
2023-02-15T09:36:48.445Z,38.70
2023-02-15T09:42:34.718Z,30.90
2023-02-15T09:48:13.443Z,39.80
2023-02-15T09:53:39.433Z,32.70
2023-02-15T09:58:54.537Z,23.40
2023-02-15T10:04:16.812Z,24.40
2023-02-15T10:09:32.997Z,24.20
2023-02-15T10:15:00.348Z,22.20
2023-02-15T10:20:15.740Z,26.90
2023-02-15T10:25:34.654Z,19.40
2023-02-15T10:30:46.012Z,27.00
2023-02-15T10:36:01.172Z,22.50
2023-02-15T10:41:20.707Z,26.40
2023-02-15T10:46:41.659Z,24.20
2023-02-15T10:51:55.437Z,20.70
2023-02-15T10:57:12.727Z,23.70
2023-02-15T11:02:25.298Z,21.00
2023-02-15T11:07:36.064Z,18.30
2023-02-15T11:12:38.956Z,21.70
2023-02-15T11:17:45.042Z,21.80
2023-02-15T11:22:49.349Z,16.70
2023-02-15T11:27:54.310Z,24.20
2023-02-15T11:32:58.397Z,27.00
2023-02-15T11:38:08.639Z,18.10
2023-02-15T11:43:18.926Z,24.40
2023-02-15T11:48:20.273Z,10.60
2023-02-15T11:53:25.975Z,21.60
2023-02-15T11:58:36.795Z,20.70
2023-02-15T12:03:50.246Z,20.90
2023-02-15T12:08:57.851Z,24.00
2023-02-15T12:14:06.944Z,20.90
2023-02-15T12:19:07.185Z,26.00
2023-02-15T12:24:20.754Z,22.00
2023-02-15T12:29:29.101Z,20.80
2023-02-15T12:34:36.139Z,24.20
2023-02-15T12:39:36.778Z,25.10
2023-02-15T12:45:04.985Z,19.80
2023-02-15T12:50:34.699Z,25.50
2023-02-15T12:55:35.076Z,30.10
2023-02-15T13:00:35.913Z,19.70
2023-02-15T13:05:41.388Z,26.70
2023-02-15T13:10:55.483Z,25.00
2023-02-15T13:16:00.696Z,23.60
2023-02-15T13:21:01.557Z,27.70
2023-02-15T13:26:05.408Z,21.70
2023-02-15T13:31:06.182Z,29.00
2023-02-15T13:36:19.399Z,22.50
2023-02-15T13:41:27.664Z,30.60
2023-02-15T13:46:47.955Z,33.30
2023-02-15T13:52:04.205Z,27.00
2023-02-15T13:57:30.312Z,30.40
2023-02-15T14:03:07.741Z,32.40
2023-02-15T14:08:23.656Z,21.10
2023-02-15T14:13:59.316Z,25.80
2023-02-15T14:19:16.189Z,27.30
2023-02-15T14:24:32.142Z,28.00
2023-02-15T14:29:49.467Z,32.00
2023-02-15T14:34:55.376Z,28.20
2023-02-15T14:40:23.136Z,33.50
2023-02-15T14:45:35.083Z,30.00
2023-02-15T14:50:57.611Z,25.30
2023-02-15T14:56:23.546Z,25.30
2023-02-15T15:01:34.576Z,25.80
2023-02-15T15:06:38.162Z,29.80
2023-02-15T15:11:48.821Z,30.20
2023-02-15T15:17:08.653Z,24.80
2023-02-15T15:22:26.540Z,33.70
2023-02-15T15:27:55.527Z,31.40
2023-02-15T15:33:04.486Z,27.80
2023-02-15T15:38:41.148Z,37.60
2023-02-15T15:44:16.153Z,26.80
2023-02-15T15:49:22.581Z,31.50
2023-02-15T15:54:30.685Z,34.80
2023-02-15T15:59:32.806Z,30.30
2023-02-15T16:04:36.059Z,34.50
2023-02-15T16:09:35.389Z,39.00
2023-02-15T16:14:40.194Z,34.10
2023-02-15T16:19:44.527Z,23.80
2023-02-15T16:25:25.628Z,27.50
2023-02-15T16:30:37.244Z,26.00
2023-02-15T16:35:37.829Z,33.60
2023-02-15T16:40:59.008Z,37.70
2023-02-15T16:46:09.311Z,30.70
2023-02-15T16:51:12.762Z,39.20
2023-02-15T16:56:12.308Z,38.00
2023-02-15T17:01:16.856Z,25.50
2023-02-15T17:06:30.473Z,31.70
2023-02-15T17:11:43.397Z,37.60
2023-02-15T17:16:53.205Z,34.60
2023-02-15T17:21:58.990Z,35.60
2023-02-15T17:27:04.537Z,28.80
2023-02-15T17:32:06.035Z,24.20
2023-02-15T17:37:05.842Z,29.90
2023-02-15T17:42:07.763Z,31.30
2023-02-15T17:47:30.553Z,33.90
2023-02-15T17:52:39.795Z,35.90
2023-02-15T17:58:03.152Z,37.00
2023-02-15T18:03:26.771Z,36.80
2023-02-15T18:08:48.798Z,33.60
2023-02-15T18:14:02.391Z,36.70
2023-02-15T18:19:23.816Z,38.60
2023-02-15T18:24:51.363Z,34.90
2023-02-15T18:30:03.488Z,29.00
2023-02-15T18:35:05.035Z,21.30
2023-02-15T18:40:14.718Z,37.10
2023-02-15T18:45:29.192Z,30.80
2023-02-15T18:50:39.219Z,36.50
2023-02-15T18:55:43.416Z,30.70
2023-02-15T19:00:47.236Z,38.80
2023-02-15T19:05:52.346Z,29.00
2023-02-15T19:17:49.675Z,40.40
2023-02-15T19:22:52.089Z,38.30
2023-02-15T19:27:55.577Z,30.60
2023-02-15T19:32:55.248Z,34.40
2023-02-15T19:37:58.857Z,39.90
2023-02-15T19:43:03.493Z,37.40
2023-02-15T19:48:15.993Z,36.70
2023-02-15T19:53:27.810Z,25.50
2023-02-15T19:58:28.125Z,33.40
2023-02-15T20:03:27.699Z,32.40
2023-02-15T20:08:30.332Z,35.20
2023-02-15T20:13:40.848Z,37.70
2023-02-15T20:18:44.817Z,28.90
2023-02-15T20:23:53.352Z,37.70
2023-02-15T20:28:54.230Z,39.10
2023-02-15T20:33:57.345Z,31.90
2023-02-15T20:38:59.885Z,36.00
2023-02-15T20:44:04.534Z,35.70
2023-02-15T20:49:09.636Z,38.50
2023-02-15T20:54:18.400Z,39.70
2023-02-15T20:59:41.566Z,40.70
2023-02-15T21:04:43.917Z,42.20
2023-02-15T21:09:43.424Z,43.30
2023-02-15T21:14:44.747Z,38.90
2023-02-15T21:19:43.515Z,38.20
2023-02-15T21:24:45.318Z,39.70
2023-02-15T21:29:44.573Z,40.40
2023-02-15T21:34:44.104Z,45.70
2023-02-15T21:39:43.303Z,46.60
2023-02-15T21:45:02.594Z,44.90
2023-02-15T21:50:22.267Z,35.60
2023-02-15T21:55:22.036Z,41.50
2023-02-15T22:00:29.273Z,46.30
2023-02-15T22:05:32.793Z,47.40
2023-02-15T22:10:35.114Z,51.20
2023-02-15T22:15:38.951Z,55.80
2023-02-15T22:20:38.288Z,61.70
2023-02-15T22:25:38.235Z,73.50
2023-02-15T22:30:39.536Z,67.90
2023-02-15T22:35:40.279Z,80.30
2023-02-15T22:40:41.149Z,78.30
2023-02-15T22:45:41.538Z,75.20
2023-02-15T22:50:40.957Z,69.90
2023-02-15T22:55:42.530Z,76.60
2023-02-15T23:00:43.694Z,71.70
2023-02-15T23:05:43.139Z,65.90
2023-02-15T23:10:45.714Z,58.50
2023-02-15T23:15:49.069Z,57.40
2023-02-15T23:20:52.756Z,62.00
2023-02-15T23:25:53.635Z,50.30
2023-02-15T23:30:53.410Z,54.80
2023-02-15T23:35:53.075Z,59.60
2023-02-15T23:41:15.754Z,54.60
2023-02-15T23:46:42.639Z,58.80
2023-02-15T23:51:42.659Z,52.30
2023-02-15T23:56:43.436Z,62.00
